sensor_id;sensor_type;location;lat;lon;timestamp;P1;durP1;ratioP1;P2;durP2;ratioP2
41532;SDS011;27262;-35.248;149.138;2024-02-26T00:00:56;1.50;;;1.40;;
41532;SDS011;27262;-35.248;149.138;2024-02-26T00:03:26;1.40;;;1.30;;
41532;SDS011;27262;-35.248;149.138;2024-02-26T00:05:57;1.50;;;1.40;;
41532;SDS011;27262;-35.248;149.138;2024-02-26T00:08:27;1.42;;;1.33;;
41532;SDS011;27262;-35.248;149.138;2024-02-26T00:10:58;1.42;;;1.33;;
41532;SDS011;27262;-35.248;149.138;2024-02-26T00:13:28;1.48;;;1.38;;
41532;SDS011;27262;-35.248;149.138;2024-02-26T00:15:58;1.70;;;1.60;;
41532;SDS011;27262;-35.248;149.138;2024-02-26T00:18:28;1.48;;;1.38;;
41532;SDS011;27262;-35.248;149.138;2024-02-26T00:20:59;1.35;;;1.25;;
41532;SDS011;27262;-35.248;149.138;2024-02-26T00:23:29;1.63;;;1.48;;
41532;SDS011;27262;-35.248;149.138;2024-02-26T00:26:00;1.50;;;1.40;;
41532;SDS011;27262;-35.248;149.138;2024-02-26T00:28:30;1.50;;;1.40;;
41532;SDS011;27262;-35.248;149.138;2024-02-26T00:31:01;1.45;;;1.35;;
41532;SDS011;27262;-35.248;149.138;2024-02-26T00:33:31;1.65;;;1.55;;
41532;SDS011;27262;-35.248;149.138;2024-02-26T00:36:02;1.90;;;1.70;;
41532;SDS011;27262;-35.248;149.138;2024-02-26T00:38:33;1.70;;;1.50;;
41532;SDS011;27262;-35.248;149.138;2024-02-26T00:41:03;1.50;;;1.40;;
41532;SDS011;27262;-35.248;149.138;2024-02-26T00:43:33;1.60;;;1.50;;
41532;SDS011;27262;-35.248;149.138;2024-02-26T00:46:04;1.55;;;1.45;;
41532;SDS011;27262;-35.248;149.138;2024-02-26T00:48:34;1.42;;;1.33;;
41532;SDS011;27262;-35.248;149.138;2024-02-26T00:51:06;1.45;;;1.33;;
41532;SDS011;27262;-35.248;149.138;2024-02-26T00:53:36;1.30;;;1.20;;
41532;SDS011;27262;-35.248;149.138;2024-02-26T00:56:07;1.38;;;1.27;;
41532;SDS011;27262;-35.248;149.138;2024-02-26T00:58:37;1.33;;;1.23;;
41532;SDS011;27262;-35.248;149.138;2024-02-26T01:01:07;1.63;;;1.50;;
41532;SDS011;27262;-35.248;149.138;2024-02-26T01:03:38;1.40;;;1.30;;
41532;SDS011;27262;-35.248;149.138;2024-02-26T01:06:08;1.40;;;1.30;;
41532;SDS011;27262;-35.248;149.138;2024-02-26T01:08:39;1.70;;;1.60;;
41532;SDS011;27262;-35.248;149.138;2024-02-26T01:11:09;1.40;;;1.30;;
41532;SDS011;27262;-35.248;149.138;2024-02-26T01:13:39;1.67;;;1.58;;
41532;SDS011;27262;-35.248;149.138;2024-02-26T01:16:10;1.77;;;1.67;;
41532;SDS011;27262;-35.248;149.138;2024-02-26T01:18:40;1.35;;;1.20;;
41532;SDS011;27262;-35.248;149.138;2024-02-26T01:21:11;1.15;;;1.05;;
41532;SDS011;27262;-35.248;149.138;2024-02-26T01:23:41;1.30;;;1.20;;
41532;SDS011;27262;-35.248;149.138;2024-02-26T01:26:11;1.33;;;1.23;;
41532;SDS011;27262;-35.248;149.138;2024-02-26T01:28:42;1.70;;;1.50;;
41532;SDS011;27262;-35.248;149.138;2024-02-26T01:31:12;1.40;;;1.30;;
41532;SDS011;27262;-35.248;149.138;2024-02-26T01:33:42;1.50;;;1.40;;
41532;SDS011;27262;-35.248;149.138;2024-02-26T01:36:13;1.35;;;1.25;;
41532;SDS011;27262;-35.248;149.138;2024-02-26T01:38:43;1.50;;;1.40;;
41532;SDS011;27262;-35.248;149.138;2024-02-26T01:41:14;1.33;;;1.23;;
41532;SDS011;27262;-35.248;149.138;2024-02-26T01:43:44;1.23;;;1.13;;
41532;SDS011;27262;-35.248;149.138;2024-02-26T01:46:14;1.10;;;1.10;;
41532;SDS011;27262;-35.248;149.138;2024-02-26T01:48:46;1.20;;;1.10;;
41532;SDS011;27262;-35.248;149.138;2024-02-26T01:51:18;1.25;;;1.15;;
41532;SDS011;27262;-35.248;149.138;2024-02-26T01:53:49;1.50;;;1.20;;
41532;SDS011;27262;-35.248;149.138;2024-02-26T01:56:19;1.65;;;1.55;;
41532;SDS011;27262;-35.248;149.138;2024-02-26T01:58:50;1.20;;;1.05;;
41532;SDS011;27262;-35.248;149.138;2024-02-26T02:01:21;1.30;;;1.13;;
41532;SDS011;27262;-35.248;149.138;2024-02-26T02:03:56;1.02;;;0.93;;
41532;SDS011;27262;-35.248;149.138;2024-02-26T02:06:28;1.40;;;1.30;;
41532;SDS011;27262;-35.248;149.138;2024-02-26T02:08:58;1.05;;;1.05;;
41532;SDS011;27262;-35.248;149.138;2024-02-26T02:11:34;1.25;;;1.15;;
41532;SDS011;27262;-35.248;149.138;2024-02-26T02:14:05;1.25;;;1.15;;
41532;SDS011;27262;-35.248;149.138;2024-02-26T02:16:36;1.15;;;1.05;;
41532;SDS011;27262;-35.248;149.138;2024-02-26T02:19:06;1.25;;;1.15;;
41532;SDS011;27262;-35.248;149.138;2024-02-26T02:21:36;1.50;;;1.40;;
41532;SDS011;27262;-35.248;149.138;2024-02-26T02:24:07;1.20;;;1.10;;
41532;SDS011;27262;-35.248;149.138;2024-02-26T02:26:37;1.30;;;1.20;;
41532;SDS011;27262;-35.248;149.138;2024-02-26T02:29:07;1.70;;;1.13;;
41532;SDS011;27262;-35.248;149.138;2024-02-26T02:31:38;1.48;;;1.38;;
41532;SDS011;27262;-35.248;149.138;2024-02-26T02:34:09;1.23;;;1.13;;
41532;SDS011;27262;-35.248;149.138;2024-02-26T02:36:51;1.35;;;1.25;;
41532;SDS011;27262;-35.248;149.138;2024-02-26T02:39:22;1.38;;;1.27;;
41532;SDS011;27262;-35.248;149.138;2024-02-26T02:41:53;1.20;;;1.10;;
41532;SDS011;27262;-35.248;149.138;2024-02-26T02:44:23;1.50;;;1.40;;
41532;SDS011;27262;-35.248;149.138;2024-02-26T02:46:54;1.20;;;1.10;;
41532;SDS011;27262;-35.248;149.138;2024-02-26T02:49:24;1.17;;;1.10;;
41532;SDS011;27262;-35.248;149.138;2024-02-26T02:51:55;1.10;;;1.00;;
41532;SDS011;27262;-35.248;149.138;2024-02-26T02:54:26;1.13;;;1.05;;
41532;SDS011;27262;-35.248;149.138;2024-02-26T02:56:56;1.40;;;1.30;;
41532;SDS011;27262;-35.248;149.138;2024-02-26T02:59:26;1.23;;;1.13;;
41532;SDS011;27262;-35.248;149.138;2024-02-26T03:01:57;1.23;;;1.13;;
41532;SDS011;27262;-35.248;149.138;2024-02-26T03:04:27;1.00;;;1.00;;
41532;SDS011;27262;-35.248;149.138;2024-02-26T03:06:58;1.20;;;1.10;;
41532;SDS011;27262;-35.248;149.138;2024-02-26T03:09:29;0.93;;;0.88;;
41532;SDS011;27262;-35.248;149.138;2024-02-26T03:11:59;0.90;;;0.90;;
41532;SDS011;27262;-35.248;149.138;2024-02-26T03:14:29;1.30;;;1.20;;
41532;SDS011;27262;-35.248;149.138;2024-02-26T03:17:00;1.00;;;0.90;;
41532;SDS011;27262;-35.248;149.138;2024-02-26T03:19:30;1.00;;;0.95;;
41532;SDS011;27262;-35.248;149.138;2024-02-26T03:22:01;1.55;;;1.10;;
41532;SDS011;27262;-35.248;149.138;2024-02-26T03:24:31;1.92;;;1.48;;
41532;SDS011;27262;-35.248;149.138;2024-02-26T03:27:01;1.52;;;1.42;;
41532;SDS011;27262;-35.248;149.138;2024-02-26T03:29:33;1.27;;;1.17;;
41532;SDS011;27262;-35.248;149.138;2024-02-26T03:32:04;1.10;;;1.00;;
41532;SDS011;27262;-35.248;149.138;2024-02-26T03:34:35;0.95;;;0.95;;
41532;SDS011;27262;-35.248;149.138;2024-02-26T03:37:08;1.17;;;1.02;;
41532;SDS011;27262;-35.248;149.138;2024-02-26T03:39:39;1.20;;;1.10;;
41532;SDS011;27262;-35.248;149.138;2024-02-26T03:42:09;1.30;;;1.08;;
41532;SDS011;27262;-35.248;149.138;2024-02-26T03:44:40;1.15;;;1.05;;
41532;SDS011;27262;-35.248;149.138;2024-02-26T03:47:10;1.40;;;1.30;;
41532;SDS011;27262;-35.248;149.138;2024-02-26T03:49:40;1.25;;;1.15;;
41532;SDS011;27262;-35.248;149.138;2024-02-26T03:52:11;1.20;;;1.10;;
41532;SDS011;27262;-35.248;149.138;2024-02-26T03:54:42;1.00;;;0.90;;
41532;SDS011;27262;-35.248;149.138;2024-02-26T03:57:12;1.40;;;1.20;;
41532;SDS011;27262;-35.248;149.138;2024-02-26T03:59:42;0.88;;;0.88;;
41532;SDS011;27262;-35.248;149.138;2024-02-26T04:02:13;1.10;;;1.00;;
41532;SDS011;27262;-35.248;149.138;2024-02-26T04:04:43;1.42;;;1.33;;
41532;SDS011;27262;-35.248;149.138;2024-02-26T04:07:14;1.08;;;1.00;;
41532;SDS011;27262;-35.248;149.138;2024-02-26T04:09:45;1.17;;;1.08;;
41532;SDS011;27262;-35.248;149.138;2024-02-26T04:12:15;1.10;;;1.00;;
41532;SDS011;27262;-35.248;149.138;2024-02-26T04:14:45;1.10;;;1.00;;
41532;SDS011;27262;-35.248;149.138;2024-02-26T04:17:16;0.90;;;0.88;;
41532;SDS011;27262;-35.248;149.138;2024-02-26T04:19:47;1.10;;;1.02;;
41532;SDS011;27262;-35.248;149.138;2024-02-26T04:22:17;0.88;;;0.88;;
41532;SDS011;27262;-35.248;149.138;2024-02-26T04:24:47;1.10;;;1.00;;
41532;SDS011;27262;-35.248;149.138;2024-02-26T04:27:17;1.05;;;0.95;;
41532;SDS011;27262;-35.248;149.138;2024-02-26T04:29:48;1.05;;;0.98;;
41532;SDS011;27262;-35.248;149.138;2024-02-26T04:32:18;1.02;;;0.88;;
41532;SDS011;27262;-35.248;149.138;2024-02-26T04:34:49;0.77;;;0.77;;
41532;SDS011;27262;-35.248;149.138;2024-02-26T04:37:19;1.00;;;0.90;;
41532;SDS011;27262;-35.248;149.138;2024-02-26T04:39:50;1.60;;;1.17;;
41532;SDS011;27262;-35.248;149.138;2024-02-26T04:42:20;1.08;;;1.00;;
41532;SDS011;27262;-35.248;149.138;2024-02-26T04:44:50;1.13;;;1.02;;
41532;SDS011;27262;-35.248;149.138;2024-02-26T04:47:21;1.10;;;1.00;;
41532;SDS011;27262;-35.248;149.138;2024-02-26T04:49:51;1.15;;;0.93;;
41532;SDS011;27262;-35.248;149.138;2024-02-26T04:52:22;1.00;;;1.00;;
41532;SDS011;27262;-35.248;149.138;2024-02-26T04:54:52;0.77;;;0.77;;
41532;SDS011;27262;-35.248;149.138;2024-02-26T04:57:23;1.02;;;1.02;;
41532;SDS011;27262;-35.248;149.138;2024-02-26T04:59:54;1.13;;;1.10;;
41532;SDS011;27262;-35.248;149.138;2024-02-26T05:02:25;1.20;;;0.77;;
41532;SDS011;27262;-35.248;149.138;2024-02-26T05:04:56;0.95;;;0.93;;
41532;SDS011;27262;-35.248;149.138;2024-02-26T05:07:26;0.88;;;0.88;;
41532;SDS011;27262;-35.248;149.138;2024-02-26T05:09:56;0.98;;;0.95;;
41532;SDS011;27262;-35.248;149.138;2024-02-26T05:12:27;0.80;;;0.80;;
41532;SDS011;27262;-35.248;149.138;2024-02-26T05:14:58;0.98;;;0.85;;
41532;SDS011;27262;-35.248;149.138;2024-02-26T05:17:28;0.80;;;0.80;;
41532;SDS011;27262;-35.248;149.138;2024-02-26T05:19:59;0.82;;;0.82;;
41532;SDS011;27262;-35.248;149.138;2024-02-26T05:22:29;1.02;;;0.88;;
41532;SDS011;27262;-35.248;149.138;2024-02-26T05:24:59;0.85;;;0.85;;
41532;SDS011;27262;-35.248;149.138;2024-02-26T05:27:29;0.80;;;0.80;;
41532;SDS011;27262;-35.248;149.138;2024-02-26T05:30:00;2.13;;;0.90;;
41532;SDS011;27262;-35.248;149.138;2024-02-26T05:32:30;1.00;;;1.00;;
41532;SDS011;27262;-35.248;149.138;2024-02-26T05:35:01;1.15;;;1.05;;
41532;SDS011;27262;-35.248;149.138;2024-02-26T05:37:34;0.80;;;0.80;;
41532;SDS011;27262;-35.248;149.138;2024-02-26T05:40:05;1.23;;;1.13;;
41532;SDS011;27262;-35.248;149.138;2024-02-26T05:42:35;0.80;;;0.80;;
41532;SDS011;27262;-35.248;149.138;2024-02-26T05:45:06;1.25;;;0.80;;
41532;SDS011;27262;-35.248;149.138;2024-02-26T05:47:37;0.80;;;0.80;;
41532;SDS011;27262;-35.248;149.138;2024-02-26T05:50:14;1.08;;;0.98;;
41532;SDS011;27262;-35.248;149.138;2024-02-26T05:52:44;0.90;;;0.90;;
41532;SDS011;27262;-35.248;149.138;2024-02-26T05:55:14;0.88;;;0.80;;
41532;SDS011;27262;-35.248;149.138;2024-02-26T05:57:45;1.10;;;0.95;;
41532;SDS011;27262;-35.248;149.138;2024-02-26T06:00:15;0.90;;;0.80;;
41532;SDS011;27262;-35.248;149.138;2024-02-26T06:02:46;0.80;;;0.80;;
41532;SDS011;27262;-35.248;149.138;2024-02-26T06:05:17;1.02;;;0.88;;
41532;SDS011;27262;-35.248;149.138;2024-02-26T06:07:47;0.80;;;0.80;;
41532;SDS011;27262;-35.248;149.138;2024-02-26T06:10:17;0.73;;;0.70;;
41532;SDS011;27262;-35.248;149.138;2024-02-26T06:12:49;0.70;;;0.70;;
41532;SDS011;27262;-35.248;149.138;2024-02-26T06:15:20;0.90;;;0.90;;
41532;SDS011;27262;-35.248;149.138;2024-02-26T06:17:50;0.70;;;0.70;;
41532;SDS011;27262;-35.248;149.138;2024-02-26T06:20:21;0.90;;;0.90;;
41532;SDS011;27262;-35.248;149.138;2024-02-26T06:22:51;0.90;;;0.90;;
41532;SDS011;27262;-35.248;149.138;2024-02-26T06:25:21;0.70;;;0.70;;
41532;SDS011;27262;-35.248;149.138;2024-02-26T06:27:52;0.82;;;0.80;;
41532;SDS011;27262;-35.248;149.138;2024-02-26T06:30:23;0.90;;;0.90;;
41532;SDS011;27262;-35.248;149.138;2024-02-26T06:32:53;0.80;;;0.80;;
41532;SDS011;27262;-35.248;149.138;2024-02-26T06:35:24;1.33;;;1.08;;
41532;SDS011;27262;-35.248;149.138;2024-02-26T06:37:54;1.05;;;0.80;;
41532;SDS011;27262;-35.248;149.138;2024-02-26T06:40:25;0.80;;;0.73;;
41532;SDS011;27262;-35.248;149.138;2024-02-26T06:42:55;1.38;;;1.00;;
41532;SDS011;27262;-35.248;149.138;2024-02-26T06:45:25;1.42;;;0.98;;
41532;SDS011;27262;-35.248;149.138;2024-02-26T06:47:56;1.08;;;1.05;;
41532;SDS011;27262;-35.248;149.138;2024-02-26T06:50:27;0.70;;;0.70;;
41532;SDS011;27262;-35.248;149.138;2024-02-26T06:52:57;0.85;;;0.80;;
41532;SDS011;27262;-35.248;149.138;2024-02-26T06:55:27;0.98;;;0.90;;
41532;SDS011;27262;-35.248;149.138;2024-02-26T06:57:58;1.05;;;0.95;;
41532;SDS011;27262;-35.248;149.138;2024-02-26T07:00:28;0.80;;;0.80;;
41532;SDS011;27262;-35.248;149.138;2024-02-26T07:02:59;1.10;;;1.00;;
41532;SDS011;27262;-35.248;149.138;2024-02-26T07:05:33;0.60;;;0.60;;
41532;SDS011;27262;-35.248;149.138;2024-02-26T07:08:04;0.75;;;0.70;;
41532;SDS011;27262;-35.248;149.138;2024-02-26T07:10:35;1.00;;;0.90;;
41532;SDS011;27262;-35.248;149.138;2024-02-26T07:13:06;1.30;;;0.88;;
41532;SDS011;27262;-35.248;149.138;2024-02-26T07:15:36;1.00;;;0.90;;
41532;SDS011;27262;-35.248;149.138;2024-02-26T07:18:06;1.05;;;1.00;;
41532;SDS011;27262;-35.248;149.138;2024-02-26T07:20:37;1.02;;;0.93;;
41532;SDS011;27262;-35.248;149.138;2024-02-26T07:23:08;1.10;;;1.00;;
41532;SDS011;27262;-35.248;149.138;2024-02-26T07:25:38;1.20;;;1.10;;
41532;SDS011;27262;-35.248;149.138;2024-02-26T07:28:11;1.58;;;1.02;;
41532;SDS011;27262;-35.248;149.138;2024-02-26T07:30:45;0.88;;;0.88;;
41532;SDS011;27262;-35.248;149.138;2024-02-26T07:33:16;1.27;;;1.17;;
41532;SDS011;27262;-35.248;149.138;2024-02-26T07:35:46;1.40;;;1.30;;
41532;SDS011;27262;-35.248;149.138;2024-02-26T07:38:20;1.23;;;1.13;;
41532;SDS011;27262;-35.248;149.138;2024-02-26T07:41:09;1.65;;;1.25;;
41532;SDS011;27262;-35.248;149.138;2024-02-26T07:43:40;1.33;;;1.17;;
41532;SDS011;27262;-35.248;149.138;2024-02-26T07:46:14;1.85;;;1.25;;
41532;SDS011;27262;-35.248;149.138;2024-02-26T07:48:44;1.25;;;1.15;;
41532;SDS011;27262;-35.248;149.138;2024-02-26T07:51:15;1.27;;;1.17;;
41532;SDS011;27262;-35.248;149.138;2024-02-26T07:53:46;1.15;;;1.00;;
41532;SDS011;27262;-35.248;149.138;2024-02-26T07:56:16;1.27;;;1.17;;
41532;SDS011;27262;-35.248;149.138;2024-02-26T07:58:47;2.35;;;1.45;;
41532;SDS011;27262;-35.248;149.138;2024-02-26T08:01:17;1.95;;;1.13;;
41532;SDS011;27262;-35.248;149.138;2024-02-26T08:03:48;1.58;;;1.30;;
41532;SDS011;27262;-35.248;149.138;2024-02-26T08:06:18;1.58;;;1.20;;
41532;SDS011;27262;-35.248;149.138;2024-02-26T08:08:49;1.50;;;1.23;;
41532;SDS011;27262;-35.248;149.138;2024-02-26T08:11:24;1.30;;;1.20;;
41532;SDS011;27262;-35.248;149.138;2024-02-26T08:13:54;1.77;;;1.27;;
41532;SDS011;27262;-35.248;149.138;2024-02-26T08:16:24;1.95;;;1.38;;
41532;SDS011;27262;-35.248;149.138;2024-02-26T08:18:55;1.98;;;1.27;;
41532;SDS011;27262;-35.248;149.138;2024-02-26T08:21:26;2.97;;;1.23;;
41532;SDS011;27262;-35.248;149.138;2024-02-26T08:23:57;1.98;;;1.50;;
41532;SDS011;27262;-35.248;149.138;2024-02-26T08:26:28;1.88;;;1.42;;
41532;SDS011;27262;-35.248;149.138;2024-02-26T08:28:58;3.08;;;1.65;;
41532;SDS011;27262;-35.248;149.138;2024-02-26T08:31:28;1.40;;;1.30;;
41532;SDS011;27262;-35.248;149.138;2024-02-26T08:33:59;2.30;;;1.55;;
41532;SDS011;27262;-35.248;149.138;2024-02-26T08:36:31;2.28;;;1.63;;
41532;SDS011;27262;-35.248;149.138;2024-02-26T08:39:03;1.50;;;1.30;;
41532;SDS011;27262;-35.248;149.138;2024-02-26T08:41:34;2.25;;;1.70;;
41532;SDS011;27262;-35.248;149.138;2024-02-26T08:44:04;1.80;;;1.70;;
41532;SDS011;27262;-35.248;149.138;2024-02-26T08:46:35;2.42;;;1.48;;
41532;SDS011;27262;-35.248;149.138;2024-02-26T08:49:05;2.45;;;1.95;;
41532;SDS011;27262;-35.248;149.138;2024-02-26T08:51:40;1.83;;;1.70;;
41532;SDS011;27262;-35.248;149.138;2024-02-26T08:54:12;2.58;;;1.90;;
41532;SDS011;27262;-35.248;149.138;2024-02-26T08:56:43;1.80;;;1.70;;
41532;SDS011;27262;-35.248;149.138;2024-02-26T08:59:13;2.28;;;1.90;;
41532;SDS011;27262;-35.248;149.138;2024-02-26T09:01:45;1.90;;;1.70;;
41532;SDS011;27262;-35.248;149.138;2024-02-26T09:04:15;2.08;;;1.45;;
41532;SDS011;27262;-35.248;149.138;2024-02-26T09:06:46;2.58;;;1.80;;
41532;SDS011;27262;-35.248;149.138;2024-02-26T09:09:16;2.47;;;1.75;;
41532;SDS011;27262;-35.248;149.138;2024-02-26T09:11:47;1.65;;;1.55;;
41532;SDS011;27262;-35.248;149.138;2024-02-26T09:14:20;1.80;;;1.70;;
41532;SDS011;27262;-35.248;149.138;2024-02-26T09:16:54;2.83;;;1.92;;
41532;SDS011;27262;-35.248;149.138;2024-02-26T09:19:25;2.20;;;1.65;;
41532;SDS011;27262;-35.248;149.138;2024-02-26T09:21:59;3.70;;;1.95;;
41532;SDS011;27262;-35.248;149.138;2024-02-26T09:24:30;2.13;;;1.80;;
41532;SDS011;27262;-35.248;149.138;2024-02-26T09:27:00;1.92;;;1.83;;
41532;SDS011;27262;-35.248;149.138;2024-02-26T09:29:30;1.88;;;1.70;;
41532;SDS011;27262;-35.248;149.138;2024-02-26T09:32:01;2.13;;;1.80;;
41532;SDS011;27262;-35.248;149.138;2024-02-26T09:34:32;2.30;;;1.95;;
41532;SDS011;27262;-35.248;149.138;2024-02-26T09:37:02;2.00;;;1.77;;
41532;SDS011;27262;-35.248;149.138;2024-02-26T09:39:46;2.10;;;1.90;;
41532;SDS011;27262;-35.248;149.138;2024-02-26T09:42:18;2.25;;;2.05;;
41532;SDS011;27262;-35.248;149.138;2024-02-26T09:44:50;2.55;;;1.75;;
41532;SDS011;27262;-35.248;149.138;2024-02-26T09:47:24;3.05;;;2.03;;
41532;SDS011;27262;-35.248;149.138;2024-02-26T09:49:59;2.38;;;2.17;;
41532;SDS011;27262;-35.248;149.138;2024-02-26T09:52:32;2.58;;;1.80;;
41532;SDS011;27262;-35.248;149.138;2024-02-26T09:55:04;2.00;;;1.75;;
41532;SDS011;27262;-35.248;149.138;2024-02-26T09:57:36;2.00;;;1.88;;
41532;SDS011;27262;-35.248;149.138;2024-02-26T10:00:18;1.95;;;1.83;;
41532;SDS011;27262;-35.248;149.138;2024-02-26T10:02:50;2.38;;;2.17;;
41532;SDS011;27262;-35.248;149.138;2024-02-26T10:05:22;1.75;;;1.65;;
41532;SDS011;27262;-35.248;149.138;2024-02-26T10:07:53;2.60;;;2.00;;
41532;SDS011;27262;-35.248;149.138;2024-02-26T10:10:28;5.68;;;1.80;;
41532;SDS011;27262;-35.248;149.138;2024-02-26T10:12:59;2.85;;;2.55;;
41532;SDS011;27262;-35.248;149.138;2024-02-26T10:15:31;3.15;;;2.20;;
41532;SDS011;27262;-35.248;149.138;2024-02-26T10:18:05;4.30;;;2.38;;
41532;SDS011;27262;-35.248;149.138;2024-02-26T10:20:35;3.45;;;2.38;;
41532;SDS011;27262;-35.248;149.138;2024-02-26T10:23:06;6.88;;;2.00;;
41532;SDS011;27262;-35.248;149.138;2024-02-26T10:25:36;7.05;;;1.70;;
41532;SDS011;27262;-35.248;149.138;2024-02-26T10:28:07;4.95;;;2.05;;
41532;SDS011;27262;-35.248;149.138;2024-02-26T10:30:39;4.70;;;2.00;;
41532;SDS011;27262;-35.248;149.138;2024-02-26T10:33:10;2.90;;;1.60;;
41532;SDS011;27262;-35.248;149.138;2024-02-26T10:35:46;3.40;;;1.70;;
41532;SDS011;27262;-35.248;149.138;2024-02-26T10:38:17;3.90;;;1.95;;
41532;SDS011;27262;-35.248;149.138;2024-02-26T10:40:54;3.97;;;1.80;;
41532;SDS011;27262;-35.248;149.138;2024-02-26T10:43:25;4.80;;;1.92;;
41532;SDS011;27262;-35.248;149.138;2024-02-26T10:45:55;2.30;;;1.30;;
41532;SDS011;27262;-35.248;149.138;2024-02-26T10:48:27;2.63;;;1.20;;
41532;SDS011;27262;-35.248;149.138;2024-02-26T10:50:57;13.55;;;1.48;;
41532;SDS011;27262;-35.248;149.138;2024-02-26T10:53:28;2.78;;;1.30;;
41532;SDS011;27262;-35.248;149.138;2024-02-26T10:56:03;3.30;;;1.48;;
41532;SDS011;27262;-35.248;149.138;2024-02-26T10:58:34;15.40;;;1.50;;
41532;SDS011;27262;-35.248;149.138;2024-02-26T11:01:05;9.48;;;1.20;;
41532;SDS011;27262;-35.248;149.138;2024-02-26T11:03:37;4.35;;;1.30;;
41532;SDS011;27262;-35.248;149.138;2024-02-26T11:06:09;3.85;;;1.38;;
41532;SDS011;27262;-35.248;149.138;2024-02-26T11:08:40;2.13;;;1.17;;
41532;SDS011;27262;-35.248;149.138;2024-02-26T11:11:12;2.42;;;1.23;;
41532;SDS011;27262;-35.248;149.138;2024-02-26T11:13:45;3.13;;;1.00;;
41532;SDS011;27262;-35.248;149.138;2024-02-26T11:16:22;1.25;;;0.85;;
41532;SDS011;27262;-35.248;149.138;2024-02-26T11:18:53;1.63;;;1.00;;
41532;SDS011;27262;-35.248;149.138;2024-02-26T11:21:24;2.22;;;1.05;;
41532;SDS011;27262;-35.248;149.138;2024-02-26T11:24:10;3.35;;;0.80;;
41532;SDS011;27262;-35.248;149.138;2024-02-26T11:26:43;2.78;;;1.00;;
41532;SDS011;27262;-35.248;149.138;2024-02-26T11:29:21;2.05;;;0.95;;
41532;SDS011;27262;-35.248;149.138;2024-02-26T11:31:52;2.72;;;0.90;;
41532;SDS011;27262;-35.248;149.138;2024-02-26T11:34:23;0.85;;;0.65;;
41532;SDS011;27262;-35.248;149.138;2024-02-26T11:36:55;1.13;;;0.70;;
41532;SDS011;27262;-35.248;149.138;2024-02-26T11:39:25;6.47;;;1.02;;
41532;SDS011;27262;-35.248;149.138;2024-02-26T11:42:03;3.50;;;0.80;;
41532;SDS011;27262;-35.248;149.138;2024-02-26T11:44:38;4.65;;;0.90;;
41532;SDS011;27262;-35.248;149.138;2024-02-26T11:47:10;1.38;;;0.60;;
41532;SDS011;27262;-35.248;149.138;2024-02-26T11:49:41;0.85;;;0.70;;
41532;SDS011;27262;-35.248;149.138;2024-02-26T11:52:12;2.92;;;0.73;;
41532;SDS011;27262;-35.248;149.138;2024-02-26T11:54:50;0.95;;;0.40;;
41532;SDS011;27262;-35.248;149.138;2024-02-26T12:00:18;1.80;;;0.60;;
41532;SDS011;27262;-35.248;149.138;2024-02-26T12:02:52;3.92;;;0.70;;
41532;SDS011;27262;-35.248;149.138;2024-02-26T12:05:32;1.55;;;0.60;;
41532;SDS011;27262;-35.248;149.138;2024-02-26T12:08:06;2.67;;;0.70;;
41532;SDS011;27262;-35.248;149.138;2024-02-26T12:10:37;0.80;;;0.60;;
41532;SDS011;27262;-35.248;149.138;2024-02-26T12:13:10;2.78;;;0.90;;
41532;SDS011;27262;-35.248;149.138;2024-02-26T12:15:55;2.13;;;0.70;;
41532;SDS011;27262;-35.248;149.138;2024-02-26T12:18:28;1.52;;;0.50;;
41532;SDS011;27262;-35.248;149.138;2024-02-26T12:21:02;1.23;;;0.60;;
41532;SDS011;27262;-35.248;149.138;2024-02-26T12:23:33;2.58;;;0.90;;
41532;SDS011;27262;-35.248;149.138;2024-02-26T12:26:04;2.75;;;0.80;;
41532;SDS011;27262;-35.248;149.138;2024-02-26T12:28:36;1.48;;;0.82;;
41532;SDS011;27262;-35.248;149.138;2024-02-26T12:31:06;2.13;;;0.90;;
41532;SDS011;27262;-35.248;149.138;2024-02-26T12:33:37;2.38;;;1.27;;
41532;SDS011;27262;-35.248;149.138;2024-02-26T12:36:08;3.65;;;1.00;;
41532;SDS011;27262;-35.248;149.138;2024-02-26T12:38:38;2.88;;;1.00;;
41532;SDS011;27262;-35.248;149.138;2024-02-26T12:41:09;1.92;;;0.85;;
41532;SDS011;27262;-35.248;149.138;2024-02-26T12:43:40;3.20;;;1.08;;
41532;SDS011;27262;-35.248;149.138;2024-02-26T12:46:14;4.90;;;1.20;;
41532;SDS011;27262;-35.248;149.138;2024-02-26T12:48:46;2.10;;;1.00;;
41532;SDS011;27262;-35.248;149.138;2024-02-26T12:51:16;1.92;;;0.70;;
41532;SDS011;27262;-35.248;149.138;2024-02-26T12:53:47;3.72;;;0.90;;
41532;SDS011;27262;-35.248;149.138;2024-02-26T12:56:21;3.72;;;1.15;;
41532;SDS011;27262;-35.248;149.138;2024-02-26T12:58:52;2.40;;;1.20;;
41532;SDS011;27262;-35.248;149.138;2024-02-26T13:01:24;3.58;;;1.08;;
41532;SDS011;27262;-35.248;149.138;2024-02-26T13:03:55;3.35;;;0.90;;
41532;SDS011;27262;-35.248;149.138;2024-02-26T13:06:27;2.70;;;1.00;;
41532;SDS011;27262;-35.248;149.138;2024-02-26T13:08:57;1.75;;;0.85;;
41532;SDS011;27262;-35.248;149.138;2024-02-26T13:11:28;3.83;;;1.15;;
41532;SDS011;27262;-35.248;149.138;2024-02-26T13:13:59;2.15;;;1.05;;
41532;SDS011;27262;-35.248;149.138;2024-02-26T13:16:33;2.65;;;1.00;;
41532;SDS011;27262;-35.248;149.138;2024-02-26T13:19:10;3.05;;;1.08;;
41532;SDS011;27262;-35.248;149.138;2024-02-26T13:21:40;4.50;;;1.70;;
41532;SDS011;27262;-35.248;149.138;2024-02-26T13:24:12;2.85;;;1.10;;
41532;SDS011;27262;-35.248;149.138;2024-02-26T13:26:43;2.63;;;0.93;;
41532;SDS011;27262;-35.248;149.138;2024-02-26T13:29:19;2.05;;;1.13;;
41532;SDS011;27262;-35.248;149.138;2024-02-26T13:31:53;4.30;;;1.13;;
41532;SDS011;27262;-35.248;149.138;2024-02-26T13:34:28;3.45;;;1.17;;
41532;SDS011;27262;-35.248;149.138;2024-02-26T13:37:00;3.67;;;1.20;;
41532;SDS011;27262;-35.248;149.138;2024-02-26T13:39:30;3.92;;;1.42;;
41532;SDS011;27262;-35.248;149.138;2024-02-26T13:42:03;3.88;;;1.10;;
41532;SDS011;27262;-35.248;149.138;2024-02-26T13:44:34;3.03;;;1.05;;
41532;SDS011;27262;-35.248;149.138;2024-02-26T13:47:08;3.83;;;1.30;;
41532;SDS011;27262;-35.248;149.138;2024-02-26T13:49:39;3.33;;;1.30;;
41532;SDS011;27262;-35.248;149.138;2024-02-26T13:52:10;1.95;;;1.15;;
41532;SDS011;27262;-35.248;149.138;2024-02-26T13:54:40;4.28;;;1.60;;
41532;SDS011;27262;-35.248;149.138;2024-02-26T13:57:11;3.45;;;1.10;;
41532;SDS011;27262;-35.248;149.138;2024-02-26T13:59:41;3.40;;;1.42;;
41532;SDS011;27262;-35.248;149.138;2024-02-26T14:02:12;2.88;;;1.42;;
41532;SDS011;27262;-35.248;149.138;2024-02-26T14:04:42;1.60;;;0.95;;
41532;SDS011;27262;-35.248;149.138;2024-02-26T14:07:13;3.40;;;1.40;;
41532;SDS011;27262;-35.248;149.138;2024-02-26T14:09:45;2.55;;;1.25;;
41532;SDS011;27262;-35.248;149.138;2024-02-26T14:12:17;3.05;;;1.00;;
41532;SDS011;27262;-35.248;149.138;2024-02-26T14:14:50;2.05;;;1.05;;
41532;SDS011;27262;-35.248;149.138;2024-02-26T14:17:24;3.33;;;1.20;;
41532;SDS011;27262;-35.248;149.138;2024-02-26T14:19:54;3.83;;;1.42;;
41532;SDS011;27262;-35.248;149.138;2024-02-26T14:22:25;2.90;;;1.23;;
41532;SDS011;27262;-35.248;149.138;2024-02-26T14:24:56;3.55;;;1.20;;
41532;SDS011;27262;-35.248;149.138;2024-02-26T14:27:28;4.15;;;1.10;;
41532;SDS011;27262;-35.248;149.138;2024-02-26T14:29:58;2.67;;;1.10;;
41532;SDS011;27262;-35.248;149.138;2024-02-26T14:32:29;2.58;;;0.88;;
41532;SDS011;27262;-35.248;149.138;2024-02-26T14:35:07;2.60;;;1.10;;